Skip Navigation Links Skip Navigation Links

Current Weather

Nioro Du Sahel, Mali

For information only: do not use for flight planning or navigation.
Latest weather
Observation time Sunday, December 17, 2017 9:00 PM GMT
Local time Sunday, December 17, 2017 11:15 PM GMT
Flight conditions Visual Meteorological Conditions
Winds
Wind direction Northeast (40°)
Wind speed 5 mph
Visibility 6.2 mi.
Sky condition
Ceiling unlimited
Sky clear
Temperature 73°F
Dewpoint 36°F
Altimeter 30.00 in.Hg
Derived measurements
Relative humidity 25%
Density altitude 1183 ft.
Remarks
Ceiling and visibility OK.
METAR GANR 172100Z 04004KT CAVOK 23/02 Q1016

Settings

Location code

InnerDrive.Weather 4.0.6144.1 Release CLR 4.0.30319.36366
Copyright ©2015 Inner Drive Technology. All rights reserved. Portions Copyright ©1986-2015 David Braverman.

Find weather

Site navigation


Skip Navigation Links

Place info

Page info

PayPal - The safer, easier way to pay online!

Return home.

Copyright ©2017 Inner Drive Technology. Purveyors of fine, hand-crafted computer software. Page printed 2017-12-17T23:15:28 UTC.